sensor_id;sensor_type;location;lat;lon;timestamp;P1;durP1;ratioP1;P2;durP2;ratioP2
74926;SDS011;63488;48.092;-1.640;2022-12-08T00:00:19;44.90;;;26.92;;
74926;SDS011;63488;48.092;-1.640;2022-12-08T00:02:45;40.63;;;26.02;;
74926;SDS011;63488;48.092;-1.640;2022-12-08T00:05:10;37.45;;;23.40;;
74926;SDS011;63488;48.092;-1.640;2022-12-08T00:07:54;40.78;;;24.52;;
74926;SDS011;63488;48.092;-1.640;2022-12-08T00:10:41;39.45;;;24.40;;
74926;SDS011;63488;48.092;-1.640;2022-12-08T00:13:06;45.10;;;27.52;;
74926;SDS011;63488;48.092;-1.640;2022-12-08T00:15:31;46.38;;;28.85;;
74926;SDS011;63488;48.092;-1.640;2022-12-08T00:17:57;51.40;;;30.38;;
74926;SDS011;63488;48.092;-1.640;2022-12-08T00:20:22;53.10;;;29.55;;
74926;SDS011;63488;48.092;-1.640;2022-12-08T00:22:47;48.22;;;29.08;;
74926;SDS011;63488;48.092;-1.640;2022-12-08T00:25:13;53.78;;;30.13;;
74926;SDS011;63488;48.092;-1.640;2022-12-08T00:27:38;48.97;;;28.48;;
74926;SDS011;63488;48.092;-1.640;2022-12-08T00:30:04;54.45;;;29.35;;
74926;SDS011;63488;48.092;-1.640;2022-12-08T00:32:30;53.30;;;30.02;;
74926;SDS011;63488;48.092;-1.640;2022-12-08T00:34:55;51.65;;;29.67;;
74926;SDS011;63488;48.092;-1.640;2022-12-08T00:37:21;51.40;;;29.08;;
74926;SDS011;63488;48.092;-1.640;2022-12-08T00:39:46;47.35;;;31.00;;
74926;SDS011;63488;48.092;-1.640;2022-12-08T00:42:11;47.90;;;31.58;;
74926;SDS011;63488;48.092;-1.640;2022-12-08T00:44:37;48.30;;;30.73;;
74926;SDS011;63488;48.092;-1.640;2022-12-08T00:47:02;44.90;;;30.90;;
74926;SDS011;63488;48.092;-1.640;2022-12-08T00:49:28;47.45;;;29.15;;
74926;SDS011;63488;48.092;-1.640;2022-12-08T00:51:53;46.70;;;30.52;;
74926;SDS011;63488;48.092;-1.640;2022-12-08T00:54:19;42.92;;;29.55;;
74926;SDS011;63488;48.092;-1.640;2022-12-08T00:56:44;43.15;;;30.05;;
74926;SDS011;63488;48.092;-1.640;2022-12-08T00:59:10;44.47;;;29.10;;
74926;SDS011;63488;48.092;-1.640;2022-12-08T01:01:35;43.22;;;30.50;;
74926;SDS011;63488;48.092;-1.640;2022-12-08T01:04:04;44.05;;;30.52;;
74926;SDS011;63488;48.092;-1.640;2022-12-08T01:06:29;45.58;;;29.95;;
74926;SDS011;63488;48.092;-1.640;2022-12-08T01:08:55;46.67;;;30.52;;
74926;SDS011;63488;48.092;-1.640;2022-12-08T01:11:20;43.50;;;30.10;;
74926;SDS011;63488;48.092;-1.640;2022-12-08T01:13:46;40.97;;;28.20;;
74926;SDS011;63488;48.092;-1.640;2022-12-08T01:16:21;41.83;;;28.17;;
74926;SDS011;63488;48.092;-1.640;2022-12-08T01:18:46;43.92;;;28.05;;
74926;SDS011;63488;48.092;-1.640;2022-12-08T01:21:12;43.13;;;28.75;;
74926;SDS011;63488;48.092;-1.640;2022-12-08T01:23:37;42.45;;;29.20;;
74926;SDS011;63488;48.092;-1.640;2022-12-08T01:26:03;40.83;;;28.90;;
74926;SDS011;63488;48.092;-1.640;2022-12-08T01:28:29;41.17;;;28.52;;
74926;SDS011;63488;48.092;-1.640;2022-12-08T01:30:55;42.15;;;27.77;;
74926;SDS011;63488;48.092;-1.640;2022-12-08T01:33:20;38.33;;;27.27;;
74926;SDS011;63488;48.092;-1.640;2022-12-08T01:35:46;38.08;;;27.13;;
74926;SDS011;63488;48.092;-1.640;2022-12-08T01:38:11;39.88;;;28.42;;
74926;SDS011;63488;48.092;-1.640;2022-12-08T01:40:36;39.67;;;27.85;;
74926;SDS011;63488;48.092;-1.640;2022-12-08T01:43:02;38.17;;;27.90;;
74926;SDS011;63488;48.092;-1.640;2022-12-08T01:45:28;37.20;;;26.88;;
74926;SDS011;63488;48.092;-1.640;2022-12-08T01:48:05;36.72;;;27.40;;
74926;SDS011;63488;48.092;-1.640;2022-12-08T01:50:33;40.72;;;27.33;;
74926;SDS011;63488;48.092;-1.640;2022-12-08T01:53:09;39.70;;;27.15;;
74926;SDS011;63488;48.092;-1.640;2022-12-08T01:55:57;44.55;;;28.17;;
74926;SDS011;63488;48.092;-1.640;2022-12-08T01:58:29;45.92;;;29.42;;
74926;SDS011;63488;48.092;-1.640;2022-12-08T02:00:56;47.00;;;28.40;;
74926;SDS011;63488;48.092;-1.640;2022-12-08T02:03:33;45.75;;;28.02;;
74926;SDS011;63488;48.092;-1.640;2022-12-08T02:05:59;43.58;;;27.95;;
74926;SDS011;63488;48.092;-1.640;2022-12-08T02:08:25;44.75;;;27.83;;
74926;SDS011;63488;48.092;-1.640;2022-12-08T02:10:52;44.47;;;27.27;;
74926;SDS011;63488;48.092;-1.640;2022-12-08T02:13:17;42.75;;;27.17;;
74926;SDS011;63488;48.092;-1.640;2022-12-08T02:16:01;39.80;;;26.13;;
74926;SDS011;63488;48.092;-1.640;2022-12-08T02:20:59;41.80;;;26.65;;
74926;SDS011;63488;48.092;-1.640;2022-12-08T02:23:35;39.90;;;27.38;;
74926;SDS011;63488;48.092;-1.640;2022-12-08T02:44:34;40.67;;;27.65;;
74926;SDS011;63488;48.092;-1.640;2022-12-08T02:49:32;41.00;;;28.05;;
74926;SDS011;63488;48.092;-1.640;2022-12-08T02:54:48;38.05;;;26.90;;
74926;SDS011;63488;48.092;-1.640;2022-12-08T02:57:30;39.60;;;25.80;;
74926;SDS011;63488;48.092;-1.640;2022-12-08T03:00:08;37.45;;;24.40;;
74926;SDS011;63488;48.092;-1.640;2022-12-08T03:05:09;37.58;;;25.20;;
74926;SDS011;63488;48.092;-1.640;2022-12-08T03:07:39;36.88;;;23.73;;
74926;SDS011;63488;48.092;-1.640;2022-12-08T03:10:08;43.63;;;27.13;;
74926;SDS011;63488;48.092;-1.640;2022-12-08T03:12:47;41.80;;;26.38;;
74926;SDS011;63488;48.092;-1.640;2022-12-08T03:15:13;44.25;;;26.77;;
74926;SDS011;63488;48.092;-1.640;2022-12-08T03:17:40;40.83;;;25.13;;
74926;SDS011;63488;48.092;-1.640;2022-12-08T03:20:08;40.92;;;25.05;;
74926;SDS011;63488;48.092;-1.640;2022-12-08T03:22:35;37.83;;;23.65;;
74926;SDS011;63488;48.092;-1.640;2022-12-08T03:25:02;37.20;;;23.55;;
74926;SDS011;63488;48.092;-1.640;2022-12-08T03:27:28;36.45;;;24.77;;
74926;SDS011;63488;48.092;-1.640;2022-12-08T03:29:54;36.75;;;23.88;;
74926;SDS011;63488;48.092;-1.640;2022-12-08T03:35:05;37.03;;;23.88;;
74926;SDS011;63488;48.092;-1.640;2022-12-08T03:37:33;40.03;;;23.92;;
74926;SDS011;63488;48.092;-1.640;2022-12-08T03:39:59;42.97;;;26.67;;
74926;SDS011;63488;48.092;-1.640;2022-12-08T03:42:24;43.80;;;25.67;;
74926;SDS011;63488;48.092;-1.640;2022-12-08T03:44:49;42.65;;;24.90;;
74926;SDS011;63488;48.092;-1.640;2022-12-08T03:47:15;41.90;;;24.95;;
74926;SDS011;63488;48.092;-1.640;2022-12-08T03:49:40;41.85;;;24.77;;
74926;SDS011;63488;48.092;-1.640;2022-12-08T03:52:05;40.42;;;27.27;;
74926;SDS011;63488;48.092;-1.640;2022-12-08T03:54:31;40.80;;;26.85;;
74926;SDS011;63488;48.092;-1.640;2022-12-08T03:56:56;40.80;;;26.60;;
74926;SDS011;63488;48.092;-1.640;2022-12-08T03:59:21;44.45;;;28.77;;
74926;SDS011;63488;48.092;-1.640;2022-12-08T04:01:47;41.80;;;27.17;;
74926;SDS011;63488;48.092;-1.640;2022-12-08T04:04:12;40.55;;;26.15;;
74926;SDS011;63488;48.092;-1.640;2022-12-08T04:06:37;51.47;;;28.33;;
74926;SDS011;63488;48.092;-1.640;2022-12-08T04:09:03;51.13;;;29.17;;
74926;SDS011;63488;48.092;-1.640;2022-12-08T04:11:28;51.20;;;30.48;;
74926;SDS011;63488;48.092;-1.640;2022-12-08T04:13:53;50.63;;;30.45;;
74926;SDS011;63488;48.092;-1.640;2022-12-08T04:16:20;51.33;;;30.75;;
74926;SDS011;63488;48.092;-1.640;2022-12-08T04:18:46;53.25;;;31.73;;
74926;SDS011;63488;48.092;-1.640;2022-12-08T04:21:11;49.75;;;29.52;;
74926;SDS011;63488;48.092;-1.640;2022-12-08T04:23:37;47.88;;;29.98;;
74926;SDS011;63488;48.092;-1.640;2022-12-08T04:26:02;45.70;;;29.30;;
74926;SDS011;63488;48.092;-1.640;2022-12-08T04:28:28;52.83;;;30.98;;
74926;SDS011;63488;48.092;-1.640;2022-12-08T04:30:53;49.25;;;29.90;;
74926;SDS011;63488;48.092;-1.640;2022-12-08T04:33:19;49.38;;;29.40;;
74926;SDS011;63488;48.092;-1.640;2022-12-08T04:35:44;48.13;;;30.27;;
74926;SDS011;63488;48.092;-1.640;2022-12-08T04:38:09;50.55;;;29.90;;
74926;SDS011;63488;48.092;-1.640;2022-12-08T04:40:35;48.75;;;29.85;;
74926;SDS011;63488;48.092;-1.640;2022-12-08T04:43:00;47.00;;;29.65;;
74926;SDS011;63488;48.092;-1.640;2022-12-08T04:45:25;50.33;;;29.80;;
74926;SDS011;63488;48.092;-1.640;2022-12-08T04:47:51;48.13;;;29.48;;
74926;SDS011;63488;48.092;-1.640;2022-12-08T04:50:16;42.60;;;27.50;;
74926;SDS011;63488;48.092;-1.640;2022-12-08T04:52:42;46.85;;;27.05;;
74926;SDS011;63488;48.092;-1.640;2022-12-08T04:55:07;44.50;;;27.70;;
74926;SDS011;63488;48.092;-1.640;2022-12-08T04:57:32;40.83;;;26.80;;
74926;SDS011;63488;48.092;-1.640;2022-12-08T04:59:58;41.50;;;27.60;;
74926;SDS011;63488;48.092;-1.640;2022-12-08T05:02:23;40.45;;;26.95;;
74926;SDS011;63488;48.092;-1.640;2022-12-08T05:04:48;38.78;;;25.90;;
74926;SDS011;63488;48.092;-1.640;2022-12-08T05:07:14;41.85;;;25.85;;
74926;SDS011;63488;48.092;-1.640;2022-12-08T05:09:39;37.97;;;25.02;;
74926;SDS011;63488;48.092;-1.640;2022-12-08T05:12:05;39.53;;;24.83;;
74926;SDS011;63488;48.092;-1.640;2022-12-08T05:14:30;36.60;;;24.90;;
74926;SDS011;63488;48.092;-1.640;2022-12-08T05:16:55;36.53;;;24.88;;
74926;SDS011;63488;48.092;-1.640;2022-12-08T05:19:21;34.90;;;24.55;;
74926;SDS011;63488;48.092;-1.640;2022-12-08T05:21:46;34.90;;;23.58;;
74926;SDS011;63488;48.092;-1.640;2022-12-08T05:24:11;31.95;;;22.90;;
74926;SDS011;63488;48.092;-1.640;2022-12-08T05:26:37;32.55;;;23.15;;
74926;SDS011;63488;48.092;-1.640;2022-12-08T05:29:02;33.78;;;23.65;;
74926;SDS011;63488;48.092;-1.640;2022-12-08T05:31:27;31.70;;;23.38;;
74926;SDS011;63488;48.092;-1.640;2022-12-08T05:33:53;33.88;;;22.95;;
74926;SDS011;63488;48.092;-1.640;2022-12-08T05:36:18;34.10;;;23.77;;
74926;SDS011;63488;48.092;-1.640;2022-12-08T05:38:44;35.42;;;23.88;;
74926;SDS011;63488;48.092;-1.640;2022-12-08T05:41:12;31.83;;;22.95;;
74926;SDS011;63488;48.092;-1.640;2022-12-08T05:43:37;31.65;;;22.73;;
74926;SDS011;63488;48.092;-1.640;2022-12-08T05:46:02;34.92;;;23.38;;
74926;SDS011;63488;48.092;-1.640;2022-12-08T05:48:28;33.60;;;23.35;;
74926;SDS011;63488;48.092;-1.640;2022-12-08T05:50:53;31.73;;;21.77;;
74926;SDS011;63488;48.092;-1.640;2022-12-08T05:53:19;29.77;;;21.45;;
74926;SDS011;63488;48.092;-1.640;2022-12-08T05:55:45;31.67;;;22.80;;
74926;SDS011;63488;48.092;-1.640;2022-12-08T05:58:11;29.83;;;19.92;;
74926;SDS011;63488;48.092;-1.640;2022-12-08T06:00:37;29.83;;;20.80;;
74926;SDS011;63488;48.092;-1.640;2022-12-08T06:03:03;32.72;;;21.48;;
74926;SDS011;63488;48.092;-1.640;2022-12-08T06:05:28;33.47;;;21.75;;
74926;SDS011;63488;48.092;-1.640;2022-12-08T06:07:54;33.22;;;21.48;;
74926;SDS011;63488;48.092;-1.640;2022-12-08T06:10:19;34.30;;;22.83;;
74926;SDS011;63488;48.092;-1.640;2022-12-08T06:12:44;33.30;;;22.33;;
74926;SDS011;63488;48.092;-1.640;2022-12-08T06:15:10;31.27;;;21.92;;
74926;SDS011;63488;48.092;-1.640;2022-12-08T06:17:35;32.38;;;20.17;;
74926;SDS011;63488;48.092;-1.640;2022-12-08T06:20:00;31.58;;;20.90;;
74926;SDS011;63488;48.092;-1.640;2022-12-08T06:22:26;30.27;;;20.30;;
74926;SDS011;63488;48.092;-1.640;2022-12-08T06:24:51;33.42;;;22.13;;
74926;SDS011;63488;48.092;-1.640;2022-12-08T06:27:16;29.73;;;19.52;;
74926;SDS011;63488;48.092;-1.640;2022-12-08T06:29:42;32.03;;;21.10;;
74926;SDS011;63488;48.092;-1.640;2022-12-08T06:32:07;31.70;;;18.73;;
74926;SDS011;63488;48.092;-1.640;2022-12-08T06:34:32;29.42;;;18.30;;
74926;SDS011;63488;48.092;-1.640;2022-12-08T06:36:58;25.88;;;17.13;;
74926;SDS011;63488;48.092;-1.640;2022-12-08T06:39:23;28.85;;;16.55;;
74926;SDS011;63488;48.092;-1.640;2022-12-08T06:41:48;22.90;;;15.50;;
74926;SDS011;63488;48.092;-1.640;2022-12-08T06:44:32;28.90;;;17.55;;
74926;SDS011;63488;48.092;-1.640;2022-12-08T06:46:58;29.55;;;16.95;;
74926;SDS011;63488;48.092;-1.640;2022-12-08T06:49:23;26.40;;;16.65;;
74926;SDS011;63488;48.092;-1.640;2022-12-08T06:51:48;29.67;;;17.90;;
74926;SDS011;63488;48.092;-1.640;2022-12-08T06:54:14;24.52;;;16.08;;
74926;SDS011;63488;48.092;-1.640;2022-12-08T06:56:39;25.55;;;15.80;;
74926;SDS011;63488;48.092;-1.640;2022-12-08T06:59:04;27.90;;;17.42;;
74926;SDS011;63488;48.092;-1.640;2022-12-08T07:01:30;30.08;;;17.92;;
74926;SDS011;63488;48.092;-1.640;2022-12-08T07:03:55;24.52;;;16.40;;
74926;SDS011;63488;48.092;-1.640;2022-12-08T07:06:21;23.30;;;15.98;;
74926;SDS011;63488;48.092;-1.640;2022-12-08T07:08:47;23.50;;;15.48;;
74926;SDS011;63488;48.092;-1.640;2022-12-08T07:11:12;24.50;;;16.40;;
74926;SDS011;63488;48.092;-1.640;2022-12-08T07:13:37;19.90;;;13.82;;
74926;SDS011;63488;48.092;-1.640;2022-12-08T07:16:04;22.67;;;14.30;;
74926;SDS011;63488;48.092;-1.640;2022-12-08T07:18:29;19.52;;;13.40;;
74926;SDS011;63488;48.092;-1.640;2022-12-08T07:20:54;17.33;;;12.32;;
74926;SDS011;63488;48.092;-1.640;2022-12-08T07:23:20;15.65;;;11.65;;
74926;SDS011;63488;48.092;-1.640;2022-12-08T07:25:45;20.48;;;12.70;;
74926;SDS011;63488;48.092;-1.640;2022-12-08T07:28:10;17.35;;;11.30;;
74926;SDS011;63488;48.092;-1.640;2022-12-08T07:30:36;15.90;;;11.07;;
74926;SDS011;63488;48.092;-1.640;2022-12-08T07:33:02;16.55;;;11.55;;
74926;SDS011;63488;48.092;-1.640;2022-12-08T07:35:28;13.40;;;10.10;;
74926;SDS011;63488;48.092;-1.640;2022-12-08T07:37:54;14.70;;;10.27;;
74926;SDS011;63488;48.092;-1.640;2022-12-08T07:40:19;14.70;;;10.23;;
74926;SDS011;63488;48.092;-1.640;2022-12-08T07:42:44;14.77;;;10.77;;
74926;SDS011;63488;48.092;-1.640;2022-12-08T07:45:10;14.30;;;9.85;;
74926;SDS011;63488;48.092;-1.640;2022-12-08T07:47:35;13.32;;;9.20;;
74926;SDS011;63488;48.092;-1.640;2022-12-08T07:50:08;12.27;;;9.23;;
74926;SDS011;63488;48.092;-1.640;2022-12-08T07:52:33;13.30;;;9.73;;
74926;SDS011;63488;48.092;-1.640;2022-12-08T07:54:59;11.98;;;8.82;;
74926;SDS011;63488;48.092;-1.640;2022-12-08T07:57:24;14.20;;;10.90;;
74926;SDS011;63488;48.092;-1.640;2022-12-08T07:59:50;14.55;;;10.05;;
74926;SDS011;63488;48.092;-1.640;2022-12-08T08:02:16;13.25;;;8.43;;
74926;SDS011;63488;48.092;-1.640;2022-12-08T08:04:42;11.75;;;8.25;;
74926;SDS011;63488;48.092;-1.640;2022-12-08T08:07:07;13.23;;;8.73;;
74926;SDS011;63488;48.092;-1.640;2022-12-08T08:09:33;13.68;;;9.52;;
74926;SDS011;63488;48.092;-1.640;2022-12-08T08:11:58;13.45;;;9.77;;
74926;SDS011;63488;48.092;-1.640;2022-12-08T08:14:23;13.73;;;10.32;;
74926;SDS011;63488;48.092;-1.640;2022-12-08T08:16:49;12.15;;;8.32;;
74926;SDS011;63488;48.092;-1.640;2022-12-08T08:19:14;14.15;;;9.05;;
74926;SDS011;63488;48.092;-1.640;2022-12-08T08:21:39;17.70;;;9.70;;
74926;SDS011;63488;48.092;-1.640;2022-12-08T08:24:05;11.75;;;8.88;;
74926;SDS011;63488;48.092;-1.640;2022-12-08T08:26:30;13.45;;;9.30;;
74926;SDS011;63488;48.092;-1.640;2022-12-08T08:28:55;13.60;;;9.18;;
74926;SDS011;63488;48.092;-1.640;2022-12-08T08:31:24;13.02;;;9.48;;
74926;SDS011;63488;48.092;-1.640;2022-12-08T08:33:51;15.77;;;9.18;;
74926;SDS011;63488;48.092;-1.640;2022-12-08T08:36:16;9.98;;;7.57;;
74926;SDS011;63488;48.092;-1.640;2022-12-08T08:38:41;11.15;;;8.07;;
74926;SDS011;63488;48.092;-1.640;2022-12-08T08:41:08;11.98;;;8.10;;
74926;SDS011;63488;48.092;-1.640;2022-12-08T08:43:34;11.23;;;7.82;;
74926;SDS011;63488;48.092;-1.640;2022-12-08T08:46:00;9.38;;;6.47;;
74926;SDS011;63488;48.092;-1.640;2022-12-08T08:48:26;9.15;;;6.53;;
74926;SDS011;63488;48.092;-1.640;2022-12-08T08:50:53;8.52;;;6.45;;
74926;SDS011;63488;48.092;-1.640;2022-12-08T08:53:19;8.85;;;6.28;;
74926;SDS011;63488;48.092;-1.640;2022-12-08T08:55:48;10.27;;;6.78;;
74926;SDS011;63488;48.092;-1.640;2022-12-08T08:58:14;11.05;;;7.45;;
74926;SDS011;63488;48.092;-1.640;2022-12-08T09:00:41;9.57;;;7.10;;
74926;SDS011;63488;48.092;-1.640;2022-12-08T09:03:06;10.02;;;7.07;;
74926;SDS011;63488;48.092;-1.640;2022-12-08T09:05:32;9.55;;;7.45;;
74926;SDS011;63488;48.092;-1.640;2022-12-08T09:07:57;11.23;;;8.00;;
74926;SDS011;63488;48.092;-1.640;2022-12-08T09:10:23;11.38;;;7.55;;
74926;SDS011;63488;48.092;-1.640;2022-12-08T09:12:48;12.25;;;7.97;;
74926;SDS011;63488;48.092;-1.640;2022-12-08T09:15:14;10.27;;;7.40;;
74926;SDS011;63488;48.092;-1.640;2022-12-08T09:17:41;11.02;;;7.40;;
74926;SDS011;63488;48.092;-1.640;2022-12-08T09:20:07;9.77;;;7.18;;
74926;SDS011;63488;48.092;-1.640;2022-12-08T09:22:32;11.40;;;7.35;;
74926;SDS011;63488;48.092;-1.640;2022-12-08T09:24:58;9.95;;;7.03;;
74926;SDS011;63488;48.092;-1.640;2022-12-08T09:27:23;10.35;;;7.22;;
74926;SDS011;63488;48.092;-1.640;2022-12-08T09:29:49;9.77;;;7.40;;
74926;SDS011;63488;48.092;-1.640;2022-12-08T09:32:14;12.70;;;8.13;;
74926;SDS011;63488;48.092;-1.640;2022-12-08T09:34:39;11.20;;;7.90;;
74926;SDS011;63488;48.092;-1.640;2022-12-08T09:37:05;11.77;;;8.82;;
74926;SDS011;63488;48.092;-1.640;2022-12-08T09:39:30;11.35;;;7.88;;
74926;SDS011;63488;48.092;-1.640;2022-12-08T09:42:05;12.98;;;8.38;;
74926;SDS011;63488;48.092;-1.640;2022-12-08T09:44:42;12.30;;;8.45;;
74926;SDS011;63488;48.092;-1.640;2022-12-08T09:47:29;10.68;;;7.80;;
74926;SDS011;63488;48.092;-1.640;2022-12-08T09:52:34;9.20;;;7.03;;
74926;SDS011;63488;48.092;-1.640;2022-12-08T09:55:03;9.85;;;7.30;;
74926;SDS011;63488;48.092;-1.640;2022-12-08T09:57:33;11.55;;;7.45;;
74926;SDS011;63488;48.092;-1.640;2022-12-08T10:00:00;10.95;;;8.05;;
74926;SDS011;63488;48.092;-1.640;2022-12-08T10:02:27;11.82;;;7.85;;
74926;SDS011;63488;48.092;-1.640;2022-12-08T10:04:54;12.43;;;8.40;;
74926;SDS011;63488;48.092;-1.640;2022-12-08T10:07:37;11.43;;;7.82;;
74926;SDS011;63488;48.092;-1.640;2022-12-08T10:12:45;13.07;;;7.82;;
74926;SDS011;63488;48.092;-1.640;2022-12-08T10:17:54;11.40;;;7.55;;
74926;SDS011;63488;48.092;-1.640;2022-12-08T10:20:24;10.90;;;7.32;;
74926;SDS011;63488;48.092;-1.640;2022-12-08T10:22:52;10.48;;;7.72;;
74926;SDS011;63488;48.092;-1.640;2022-12-08T10:25:30;11.80;;;8.43;;
74926;SDS011;63488;48.092;-1.640;2022-12-08T10:28:00;10.85;;;7.63;;
74926;SDS011;63488;48.092;-1.640;2022-12-08T10:30:26;11.52;;;7.82;;
74926;SDS011;63488;48.092;-1.640;2022-12-08T10:32:52;10.48;;;8.18;;
74926;SDS011;63488;48.092;-1.640;2022-12-08T10:35:19;10.85;;;7.80;;
74926;SDS011;63488;48.092;-1.640;2022-12-08T10:37:57;11.25;;;7.57;;
74926;SDS011;63488;48.092;-1.640;2022-12-08T10:40:25;9.57;;;7.47;;
74926;SDS011;63488;48.092;-1.640;2022-12-08T10:42:52;11.65;;;7.55;;
74926;SDS011;63488;48.092;-1.640;2022-12-08T10:45:32;9.40;;;7.57;;
74926;SDS011;63488;48.092;-1.640;2022-12-08T10:48:05;10.95;;;7.97;;
74926;SDS011;63488;48.092;-1.640;2022-12-08T10:50:42;10.43;;;7.57;;
74926;SDS011;63488;48.092;-1.640;2022-12-08T10:53:19;9.80;;;8.00;;
74926;SDS011;63488;48.092;-1.640;2022-12-08T10:55:49;11.40;;;8.50;;
74926;SDS011;63488;48.092;-1.640;2022-12-08T11:01:20;15.63;;;8.68;;
74926;SDS011;63488;48.092;-1.640;2022-12-08T11:03:49;10.77;;;8.57;;
74926;SDS011;63488;48.092;-1.640;2022-12-08T11:06:16;12.88;;;8.73;;
74926;SDS011;63488;48.092;-1.640;2022-12-08T11:08:45;13.82;;;9.13;;
74926;SDS011;63488;48.092;-1.640;2022-12-08T11:11:11;14.65;;;8.88;;
74926;SDS011;63488;48.092;-1.640;2022-12-08T11:13:39;13.35;;;8.95;;
74926;SDS011;63488;48.092;-1.640;2022-12-08T11:16:12;13.18;;;9.27;;
74926;SDS011;63488;48.092;-1.640;2022-12-08T11:18:40;14.70;;;9.35;;
74926;SDS011;63488;48.092;-1.640;2022-12-08T11:21:09;12.75;;;9.10;;
74926;SDS011;63488;48.092;-1.640;2022-12-08T11:23:35;11.90;;;8.60;;
74926;SDS011;63488;48.092;-1.640;2022-12-08T11:26:05;12.15;;;8.23;;
74926;SDS011;63488;48.092;-1.640;2022-12-08T11:28:31;13.27;;;8.93;;
74926;SDS011;63488;48.092;-1.640;2022-12-08T11:30:59;13.57;;;9.52;;
74926;SDS011;63488;48.092;-1.640;2022-12-08T11:35:59;14.98;;;9.32;;
74926;SDS011;63488;48.092;-1.640;2022-12-08T11:38:26;15.63;;;10.10;;
74926;SDS011;63488;48.092;-1.640;2022-12-08T11:40:53;14.95;;;9.60;;
74926;SDS011;63488;48.092;-1.640;2022-12-08T11:45:58;13.20;;;9.63;;
74926;SDS011;63488;48.092;-1.640;2022-12-08T11:48:26;15.90;;;10.38;;
74926;SDS011;63488;48.092;-1.640;2022-12-08T11:53:21;14.43;;;10.17;;
74926;SDS011;63488;48.092;-1.640;2022-12-08T11:55:54;18.70;;;10.27;;
74926;SDS011;63488;48.092;-1.640;2022-12-08T11:58:30;14.43;;;9.50;;
74926;SDS011;63488;48.092;-1.640;2022-12-08T12:00:59;12.50;;;8.93;;
74926;SDS011;63488;48.092;-1.640;2022-12-08T12:03:35;19.50;;;10.13;;
74926;SDS011;63488;48.092;-1.640;2022-12-08T12:13:40;12.43;;;8.75;;
74926;SDS011;63488;48.092;-1.640;2022-12-08T12:18:58;15.07;;;9.15;;
74926;SDS011;63488;48.092;-1.640;2022-12-08T12:24:30;15.75;;;8.90;;
74926;SDS011;63488;48.092;-1.640;2022-12-08T12:29:57;15.45;;;9.50;;
74926;SDS011;63488;48.092;-1.640;2022-12-08T12:32:24;15.75;;;9.57;;
74926;SDS011;63488;48.092;-1.640;2022-12-08T12:34:57;13.65;;;9.65;;
74926;SDS011;63488;48.092;-1.640;2022-12-08T12:37:25;14.07;;;9.68;;
74926;SDS011;63488;48.092;-1.640;2022-12-08T12:47:46;13.07;;;8.50;;
74926;SDS011;63488;48.092;-1.640;2022-12-08T12:52:55;12.73;;;8.35;;
74926;SDS011;63488;48.092;-1.640;2022-12-08T12:55:21;11.98;;;8.18;;
74926;SDS011;63488;48.092;-1.640;2022-12-08T12:57:55;11.38;;;7.53;;
74926;SDS011;63488;48.092;-1.640;2022-12-08T13:00:24;10.93;;;7.95;;
74926;SDS011;63488;48.092;-1.640;2022-12-08T13:05:28;11.90;;;7.53;;
74926;SDS011;63488;48.092;-1.640;2022-12-08T13:07:58;12.02;;;7.90;;
74926;SDS011;63488;48.092;-1.640;2022-12-08T13:13:06;12.37;;;8.07;;
74926;SDS011;63488;48.092;-1.640;2022-12-08T13:15:47;12.05;;;8.63;;
74926;SDS011;63488;48.092;-1.640;2022-12-08T13:18:30;11.60;;;8.18;;
74926;SDS011;63488;48.092;-1.640;2022-12-08T13:33:57;13.45;;;7.72;;
74926;SDS011;63488;48.092;-1.640;2022-12-08T13:36:34;12.00;;;8.32;;
74926;SDS011;63488;48.092;-1.640;2022-12-08T13:39:02;11.93;;;7.97;;
74926;SDS011;63488;48.092;-1.640;2022-12-08T13:41:36;12.35;;;8.25;;
74926;SDS011;63488;48.092;-1.640;2022-12-08T13:44:11;13.00;;;8.82;;
74926;SDS011;63488;48.092;-1.640;2022-12-08T13:46:41;13.25;;;9.10;;
74926;SDS011;63488;48.092;-1.640;2022-12-08T13:49:14;15.20;;;9.77;;
74926;SDS011;63488;48.092;-1.640;2022-12-08T13:51:42;15.80;;;9.75;;
74926;SDS011;63488;48.092;-1.640;2022-12-08T13:54:11;14.52;;;9.88;;
74926;SDS011;63488;48.092;-1.640;2022-12-08T13:56:43;10.88;;;8.15;;
74926;SDS011;63488;48.092;-1.640;2022-12-08T13:59:23;13.25;;;8.73;;
74926;SDS011;63488;48.092;-1.640;2022-12-08T14:04:15;9.27;;;7.20;;
74926;SDS011;63488;48.092;-1.640;2022-12-08T14:06:42;8.68;;;6.13;;
74926;SDS011;63488;48.092;-1.640;2022-12-08T14:09:22;8.70;;;6.70;;
74926;SDS011;63488;48.092;-1.640;2022-12-08T14:14:21;9.15;;;6.30;;
74926;SDS011;63488;48.092;-1.640;2022-12-08T14:16:52;8.70;;;6.32;;
74926;SDS011;63488;48.092;-1.640;2022-12-08T14:24:28;8.82;;;6.60;;
74926;SDS011;63488;48.092;-1.640;2022-12-08T14:26:57;9.40;;;6.80;;
74926;SDS011;63488;48.092;-1.640;2022-12-08T14:31:48;10.00;;;7.10;;
74926;SDS011;63488;48.092;-1.640;2022-12-08T14:34:14;9.40;;;6.97;;
74926;SDS011;63488;48.092;-1.640;2022-12-08T14:36:39;10.02;;;6.70;;
74926;SDS011;63488;48.092;-1.640;2022-12-08T14:39:05;9.65;;;7.05;;
74926;SDS011;63488;48.092;-1.640;2022-12-08T14:41:31;12.05;;;6.82;;
74926;SDS011;63488;48.092;-1.640;2022-12-08T14:43:57;9.75;;;6.35;;
74926;SDS011;63488;48.092;-1.640;2022-12-08T14:46:25;9.80;;;7.10;;
74926;SDS011;63488;48.092;-1.640;2022-12-08T14:48:50;9.70;;;7.32;;
74926;SDS011;63488;48.092;-1.640;2022-12-08T14:56:38;10.23;;;7.57;;
74926;SDS011;63488;48.092;-1.640;2022-12-08T14:59:10;8.90;;;7.05;;
74926;SDS011;63488;48.092;-1.640;2022-12-08T15:01:37;10.60;;;6.47;;
74926;SDS011;63488;48.092;-1.640;2022-12-08T15:04:14;11.38;;;7.45;;
74926;SDS011;63488;48.092;-1.640;2022-12-08T15:09:14;8.50;;;6.93;;
74926;SDS011;63488;48.092;-1.640;2022-12-08T15:11:41;9.57;;;6.70;;
74926;SDS011;63488;48.092;-1.640;2022-12-08T15:14:41;9.57;;;7.00;;
74926;SDS011;63488;48.092;-1.640;2022-12-08T15:16:58;10.68;;;7.13;;
74926;SDS011;63488;48.092;-1.640;2022-12-08T15:19:28;10.05;;;7.20;;
74926;SDS011;63488;48.092;-1.640;2022-12-08T15:21:55;10.10;;;7.10;;
74926;SDS011;63488;48.092;-1.640;2022-12-08T15:24:22;9.02;;;6.78;;
74926;SDS011;63488;48.092;-1.640;2022-12-08T15:26:48;11.30;;;7.32;;
74926;SDS011;63488;48.092;-1.640;2022-12-08T15:29:24;10.13;;;6.53;;
74926;SDS011;63488;48.092;-1.640;2022-12-08T15:31:50;9.10;;;6.60;;
74926;SDS011;63488;48.092;-1.640;2022-12-08T15:34:17;13.38;;;7.40;;
74926;SDS011;63488;48.092;-1.640;2022-12-08T15:36:44;13.32;;;7.47;;
74926;SDS011;63488;48.092;-1.640;2022-12-08T15:39:55;13.20;;;7.93;;
74926;SDS011;63488;48.092;-1.640;2022-12-08T15:41:56;9.20;;;7.22;;
74926;SDS011;63488;48.092;-1.640;2022-12-08T15:44:22;12.57;;;7.70;;
74926;SDS011;63488;48.092;-1.640;2022-12-08T15:46:48;11.43;;;7.93;;
74926;SDS011;63488;48.092;-1.640;2022-12-08T15:49:17;11.32;;;7.70;;
74926;SDS011;63488;48.092;-1.640;2022-12-08T15:51:43;12.30;;;8.00;;
74926;SDS011;63488;48.092;-1.640;2022-12-08T15:54:09;12.43;;;7.43;;
74926;SDS011;63488;48.092;-1.640;2022-12-08T15:56:35;8.93;;;6.93;;
74926;SDS011;63488;48.092;-1.640;2022-12-08T15:59:01;10.15;;;7.45;;
74926;SDS011;63488;48.092;-1.640;2022-12-08T16:01:26;11.73;;;7.53;;
74926;SDS011;63488;48.092;-1.640;2022-12-08T16:03:52;10.57;;;7.50;;
74926;SDS011;63488;48.092;-1.640;2022-12-08T16:06:19;8.95;;;7.03;;
74926;SDS011;63488;48.092;-1.640;2022-12-08T16:08:45;10.43;;;7.15;;
74926;SDS011;63488;48.092;-1.640;2022-12-08T16:11:10;9.90;;;6.95;;
74926;SDS011;63488;48.092;-1.640;2022-12-08T16:13:54;9.63;;;7.00;;